Weather observations for the past three days for
Tuscaloosa Regional Airport
Metric (Imperial)
Date Time (cdt) Wind (kph) Vis. (km) Weather Sky Cond. Temperature (ºC) Relative Humidity Wind Chill (°C) Heat Index (°C) Pressure Precipitation (cm)
Air Dwpt 6 hour altimeter (cm) sea level (mb) 1 hr 3 hr 6 hr
Max. Min.
05 18:53 S 17 16.09 Mostly Cloudy FEW070 BKN090 24 16 61% 25 75.82 0.0
05 11:53 SW 13 G 30 16.09 A Few Clouds FEW038 24 13 50% 25 76.1 0.0
05 10:53 S 13 G 31 16.09 Fair CLR 23 13 53% 76.1 0.0
04 18:53 S 15 16.09 Fair CLR 24 8 36% 25 75.95 0.0
04 15:53 Calm 16.09 Fair CLR 25 8 34% 26 76.05 0.0
04 12:53 S 17 G 26 16.09 Fair CLR 25 10 39% 26 76.17 0.0
04 11:53 S 15 16.09 Fair CLR 24 11 44% 25 76.28 0.0
04 10:53 SW 11 16.09 Fair CLR 22 11 50% 76.33 0.0
04 08:53 SW 7 16.09 Fair CLR 16 9 63% 76.35 0.0
04 06:53 Calm 11.27 Fair CLR 9 8 94% 76.35 0.0
03 15:53 NW 15 16.09 Fair CLR 23 4 29% 76.38 0.0
03 14:53 N 15 16.09 Fair CLR 23 6 33% 76.48 0.0
03 13:53 NW 11 16.09 Fair CLR 22 3 29% 76.58 0.0
03 13:47 N 15 G 26 16.09 Fair CLR 22 3 29% 76.58 0.0
03 12:00 N 9 16.09 Fair CLR 20 3 33% 76.71 0.0
03 10:53 Vrbl 9 16.09 Fair CLR 19 3 35% 76.73 0.0
03 09:53 N 9 16.09 Fair CLR 17 4 42% 76.73 0.0
03 08:53 N 9 16.09 Fair CLR 14 7 63% 76.71 0.0
03 07:53 N 7 16.09 Fair CLR 11 8 82% 76.71 0.0
03 06:53 N 6 14.48 Fair CLR 8 7 93% 76.66 0.0
Date Time (cdt) Wind (kph) Vis. (km) Weather Sky Cond. Air Dwpt Max. Min. Relative Humidity Wind Chill (°C) Heat Index (°C) altimeter (cm) sea level (mb) 1 hr 3 hr 6 hr
6 hour
Temperature (ºC) Pressure Precipitation (cm)